Pacquet, Canada
Current Conditions -  °F | °C
As of 5:00 AM on Thursday 23 Oct 2014 (Local Time) from CWDH Reporting Station
Clear Clear  
Wind Chill: 31°   Ceiling: Unl
Heat Index: 31°   Visibility: 9mi
Dew Point: 26°   Wind: 2mph
Humidity: 82%   Direction: 120°ESE
Pressure: 30.39"   Gusts: NA
Location:  50°N, 55.87°W
Report Text: CWDH 230700Z AUTO 12002KT 9SM NSC M01/M03 A3039 RMK SLP291 T10071034 WSI/SWOB
Loading
Personal Weather Stations






























Interactive Weather Map
Tropical Storm Tracking
New forecast layout! Learn more

10-Day Weather Forecast

Advertisements
Track Severe Weather on mobile